Аэропорт: Одесса. Одесса

ICAO: UKOO

METAR:
2021-04-21 20:00:00
UKOO 212000Z 21002MPS CAVOK 09/08 Q1017 R16/090060 NOSIG
METAR:
2021-04-21 17:07:00
TAF UKOO 211707Z 2118/2218 22003MPS 2100 BR SCT004 BKN007 SCT015CB PROB40 TEMPO 2118/2205 0600 -TSRA FG VV002 BECMG 2205/2206 18006G13MPS 6000 NSW